Time;durP1;ratioP1;P1;durP2;ratioP2;P2;SDS_P1;SDS_P2;PMS_P1;PMS_P2;Temp;Humidity;BMP_temperature;BMP_pressure;BME280_temperature;BME280_humidity;BME280_pressure;Samples;Min_cycle;Max_cycle;Signal;HPM_P1;HPM_P2
2022/12/28 00:02:21;;;;;;;;;;;;;;;-0.01;100.00;97285.53;5075308;28;19985;-72
2022/12/28 00:04:47;;;;;;;;;;;;;;;0.02;100.00;97278.47;5075936;28;19953;-72
2022/12/28 00:07:13;;;;;;;;;;;;;;;0.01;100.00;97272.50;5075697;28;20339;-72
2022/12/28 00:09:39;;;;;;;;;;;;;;;-0.01;100.00;97270.06;5076130;28;19955;-71
2022/12/28 00:12:05;;;;;;;;;;;;;;;-0.01;100.00;97264.09;5075634;28;19997;-72
2022/12/28 00:14:31;;;;;;;;;;;;;;;-0.02;100.00;97262.47;5075028;28;20443;-72
2022/12/28 00:16:57;;;;;;;;;;;;;;;-0.01;100.00;97267.47;5076230;28;19968;-72
2022/12/28 00:19:22;;;;;;;;;;;;;;;-0.02;100.00;97271.03;5075733;28;20445;-72
2022/12/28 00:21:48;;;;;;;;;;;;;;;-0.04;100.00;97274.69;5075561;28;19952;-72
2022/12/28 00:24:18;;;;;;;;;;;;;;;-0.07;100.00;97272.34;5075088;28;19962;-71
2022/12/28 00:26:45;;;;;;;;;;;;;;;-0.10;100.00;97273.44;5075446;28;20296;-72
2022/12/28 00:29:11;;;;;;;;;;;;;;;-0.11;100.00;97264.06;5075183;28;19954;-72
2022/12/28 00:31:37;;;;;;;;;;;;;;;-0.08;100.00;97263.00;5075642;28;19950;-71
2022/12/28 00:34:03;;;;;;;;;;;;;;;-0.05;100.00;97267.88;5075641;28;19973;-72
2022/12/28 00:36:30;;;;;;;;;;;;;;;-0.04;100.00;97262.59;5075417;28;20326;-71
2022/12/28 00:38:55;;;;;;;;;;;;;;;-0.05;100.00;97266.09;5075210;28;19955;-72
2022/12/28 00:41:21;;;;;;;;;;;;;;;-0.05;100.00;97255.78;5074807;28;19991;-71
2022/12/28 00:43:47;;;;;;;;;;;;;;;-0.02;100.00;97258.13;5075057;28;20427;-72
2022/12/28 00:46:13;;;;;;;;;;;;;;;0.00;100.00;97260.59;5075140;28;19948;-72
2022/12/28 00:48:39;;;;;;;;;;;;;;;0.03;100.00;97244.84;5075254;28;19970;-72
2022/12/28 00:51:06;;;;;;;;;;;;;;;0.08;100.00;97244.44;5075436;28;19977;-72
2022/12/28 00:53:32;;;;;;;;;;;;;;;0.12;100.00;97238.88;5074852;28;20402;-72
2022/12/28 00:56:09;;;;;;;;;;;;;;;0.16;100.00;97236.84;5074803;28;19963;-72
2022/12/28 00:58:35;;;;;;;;;;;;;;;0.18;100.00;97233.19;5075412;28;19960;-72
2022/12/28 01:01:01;;;;;;;;;;;;;;;0.18;100.00;97229.78;5074924;28;20311;-72
2022/12/28 01:03:27;;;;;;;;;;;;;;;0.19;100.00;97231.44;5057057;28;19964;-72
2022/12/28 01:05:53;;;;;;;;;;;;;;;0.23;100.00;97224.22;5074726;28;19948;-72
2022/12/28 01:08:19;;;;;;;;;;;;;;;0.24;100.00;97218.16;5074406;28;19963;-72
2022/12/28 01:10:45;;;;;;;;;;;;;;;0.26;100.00;97223.97;5074215;28;19992;-73
2022/12/28 01:13:10;;;;;;;;;;;;;;;0.28;100.00;97217.72;5074637;28;20048;-72
2022/12/28 01:15:37;;;;;;;;;;;;;;;0.30;100.00;97221.00;5074904;28;20455;-72
2022/12/28 01:18:03;;;;;;;;;;;;;;;0.32;100.00;97219.09;5074680;28;20285;-72
2022/12/28 01:20:29;;;;;;;;;;;;;;;0.32;100.00;97220.88;5073671;28;20401;-72
2022/12/28 01:22:55;;;;;;;;;;;;;;;0.33;100.00;97220.72;5074339;28;19954;-73
2022/12/28 01:25:21;;;;;;;;;;;;;;;0.35;100.00;97223.97;5074237;28;19958;-72
2022/12/28 01:27:46;;;;;;;;;;;;;;;0.36;100.00;97219.66;5074079;28;20098;-71
2022/12/28 01:30:13;;;;;;;;;;;;;;;0.35;100.00;97215.44;5074351;28;19956;-72
2022/12/28 01:32:39;;;;;;;;;;;;;;;0.35;100.00;97213.66;5074336;28;19946;-71
2022/12/28 01:35:05;;;;;;;;;;;;;;;0.36;100.00;97207.56;5073172;28;19992;-71
2022/12/28 01:37:31;;;;;;;;;;;;;;;0.37;100.00;97206.59;5074309;28;19983;-72
2022/12/28 01:39:58;;;;;;;;;;;;;;;0.40;100.00;97210.69;5074398;28;20041;-72
2022/12/28 01:42:24;;;;;;;;;;;;;;;0.44;100.00;97190.56;5056621;28;19955;-72
2022/12/28 01:44:50;;;;;;;;;;;;;;;0.46;100.00;97188.66;5074252;28;19957;-71
2022/12/28 01:47:18;;;;;;;;;;;;;;;0.46;100.00;97184.31;5073773;28;19973;-71
2022/12/28 01:49:50;;;;;;;;;;;;;;;0.46;100.00;97175.78;5073765;28;19948;-71
2022/12/28 01:52:26;;;;;;;;;;;;;;;0.45;100.00;97166.41;5073891;28;19954;-72
2022/12/28 01:54:52;;;;;;;;;;;;;;;0.45;100.00;97169.00;5066315;28;19949;-71
2022/12/28 01:57:20;;;;;;;;;;;;;;;0.46;100.00;97163.69;5073878;28;19957;-72
2022/12/28 01:59:50;;;;;;;;;;;;;;;0.47;100.00;97170.47;5074046;28;19965;-71
2022/12/28 02:02:16;;;;;;;;;;;;;;;0.51;100.00;97166.69;5073715;28;19964;-72
2022/12/28 02:04:44;;;;;;;;;;;;;;;0.54;100.00;97158.66;5073690;28;19952;-72
2022/12/28 02:07:11;;;;;;;;;;;;;;;0.56;100.00;97154.16;5057590;28;19952;-71
2022/12/28 02:09:38;;;;;;;;;;;;;;;0.58;100.00;97154.84;5073752;28;20017;-71
2022/12/28 02:12:05;;;;;;;;;;;;;;;0.62;100.00;97152.81;5073540;28;19946;-72
2022/12/28 02:14:31;;;;;;;;;;;;;;;0.63;100.00;97146.72;5073892;28;19948;-72
2022/12/28 02:16:57;;;;;;;;;;;;;;;0.65;100.00;97151.72;5073852;28;19964;-72
2022/12/28 02:19:42;;;;;;;;;;;;;;;0.66;100.00;97151.59;5072642;28;19985;-72
2022/12/28 02:22:26;;;;;;;;;;;;;;;0.68;100.00;97144.53;5073059;28;19953;-72
2022/12/28 02:25:12;;;;;;;;;;;;;;;0.71;100.00;97136.47;5073864;28;19962;-72
2022/12/28 02:27:53;;;;;;;;;;;;;;;0.73;100.00;97137.16;5072262;28;19958;-72
2022/12/28 02:30:19;;;;;;;;;;;;;;;0.75;100.00;97121.53;5073779;28;19953;-72
2022/12/28 02:32:58;;;;;;;;;;;;;;;0.75;100.00;97130.09;5073425;28;19954;-72
2022/12/28 02:35:23;;;;;;;;;;;;;;;0.77;100.00;97128.19;5073836;28;19951;-72
2022/12/28 02:38:06;;;;;;;;;;;;;;;0.80;100.00;97120.19;5073931;28;20438;-72
2022/12/28 02:40:36;;;;;;;;;;;;;;;0.83;100.00;97111.31;5063182;28;19950;-72
2022/12/28 02:43:02;;;;;;;;;;;;;;;0.84;100.00;97112.97;5060554;28;19952;-72
2022/12/28 02:51:08;;;;;;;;;;;;;;;0.89;100.00;97117.72;5066128;28;19953;-72
2022/12/28 02:53:47;;;;;;;;;;;;;;;0.90;100.00;97103.81;5073137;28;19953;-72
2022/12/28 02:56:25;;;;;;;;;;;;;;;0.91;100.00;97102.88;5073444;28;19959;-72
2022/12/28 02:59:01;;;;;;;;;;;;;;;0.93;100.00;97098.41;5073463;28;19961;-72
2022/12/28 03:01:27;;;;;;;;;;;;;;;0.95;100.00;97088.75;5073139;28;19964;-72
2022/12/28 03:03:56;;;;;;;;;;;;;;;0.96;100.00;97064.53;5073526;28;20422;-71
2022/12/28 03:09:18;;;;;;;;;;;;;;;0.94;100.00;97087.91;5073110;28;19970;-72
2022/12/28 03:11:52;;;;;;;;;;;;;;;0.95;100.00;97073.25;5038607;28;19945;-72
2022/12/28 03:14:22;;;;;;;;;;;;;;;0.96;100.00;97072.28;5071704;28;19950;-72
2022/12/28 03:31:05;;;;;;;;;;;;;;;1.02;100.00;97067.34;5072885;28;19966;-72
2022/12/28 03:33:33;;;;;;;;;;;;;;;1.02;100.00;97063.97;5073494;28;19954;-72
2022/12/28 03:36:19;;;;;;;;;;;;;;;1.02;100.00;97057.03;5076283;28;20319;-72
2022/12/28 03:39:03;;;;;;;;;;;;;;;1.05;100.00;97052.53;5076244;28;20018;-72
2022/12/28 03:41:33;;;;;;;;;;;;;;;1.07;100.00;97053.19;5075480;28;19944;-72
2022/12/28 03:44:02;;;;;;;;;;;;;;;1.08;100.00;97050.47;5076615;28;19957;-72
2022/12/28 03:46:35;;;;;;;;;;;;;;;1.10;100.00;97047.75;5076256;28;19955;-72
2022/12/28 03:49:01;;;;;;;;;;;;;;;1.11;100.00;97039.84;5075635;28;19965;-72
2022/12/28 03:51:29;;;;;;;;;;;;;;;1.13;100.00;97040.50;5075971;28;19978;-72
2022/12/28 03:53:55;;;;;;;;;;;;;;;1.11;100.00;97031.28;5076070;28;19947;-72
2022/12/28 03:56:23;;;;;;;;;;;;;;;1.09;100.00;97033.19;5076222;28;19944;-72
2022/12/28 03:58:49;;;;;;;;;;;;;;;1.06;100.00;97030.94;5076569;28;19953;-72
2022/12/28 04:01:15;;;;;;;;;;;;;;;1.04;100.00;97040.59;5076305;28;20014;-72
2022/12/28 04:03:41;;;;;;;;;;;;;;;1.02;100.00;97023.44;5058044;28;19952;-72
2022/12/28 04:06:09;;;;;;;;;;;;;;;1.04;100.00;97035.41;5075917;28;19979;-72
2022/12/28 04:08:34;;;;;;;;;;;;;;;1.01;100.00;97021.84;5075979;28;19962;-72
2022/12/28 04:11:00;;;;;;;;;;;;;;;1.06;100.00;97015.44;5075914;28;19958;-72
2022/12/28 04:13:29;;;;;;;;;;;;;;;1.07;100.00;97014.44;5075369;28;20403;-72
2022/12/28 04:16:00;;;;;;;;;;;;;;;1.12;100.00;97020.03;5075632;28;20315;-74
2022/12/28 04:18:26;;;;;;;;;;;;;;;1.15;100.00;97010.19;5047190;28;20327;-72
2022/12/28 04:20:52;;;;;;;;;;;;;;;1.20;100.00;97018.34;5057594;28;19955;-72
2022/12/28 04:23:18;;;;;;;;;;;;;;;1.26;100.00;97022.13;5075906;28;19959;-72
2022/12/28 04:25:54;;;;;;;;;;;;;;;1.29;100.00;97014.06;5075621;28;19946;-72
2022/12/28 04:28:20;;;;;;;;;;;;;;;1.32;100.00;97003.41;5075824;28;20454;-72
2022/12/28 04:30:46;;;;;;;;;;;;;;;1.35;100.00;97004.94;5075308;28;19948;-72
2022/12/28 04:33:12;;;;;;;;;;;;;;;1.38;100.00;97002.84;5075560;28;20395;-72
2022/12/28 04:35:38;;;;;;;;;;;;;;;1.42;100.00;97006.75;5075651;28;19953;-72
2022/12/28 04:38:03;;;;;;;;;;;;;;;1.45;100.00;97000.50;5075396;28;20026;-72
2022/12/28 04:40:29;;;;;;;;;;;;;;;1.50;100.00;96997.47;5075257;28;19963;-72
2022/12/28 04:42:55;;;;;;;;;;;;;;;1.54;100.00;97002.19;5075266;28;19985;-72
2022/12/28 04:45:21;;;;;;;;;;;;;;;1.58;100.00;97002.72;5074166;28;19960;-72
2022/12/28 04:47:47;;;;;;;;;;;;;;;1.59;100.00;97002.56;5075066;28;20413;-72
2022/12/28 04:50:13;;;;;;;;;;;;;;;1.60;100.00;97011.94;5075189;28;19996;-72
2022/12/28 04:52:39;;;;;;;;;;;;;;;1.59;100.00;97002.56;5075369;28;20002;-72
2022/12/28 04:55:04;;;;;;;;;;;;;;;1.58;100.00;97006.13;5075012;28;19954;-72
2022/12/28 04:57:30;;;;;;;;;;;;;;;1.58;100.00;97002.72;5074678;28;19961;-72
2022/12/28 04:59:56;;;;;;;;;;;;;;;1.60;100.00;96998.22;5075020;28;19962;-72
2022/12/28 05:02:22;;;;;;;;;;;;;;;1.61;100.00;96999.84;5074906;28;19958;-72
2022/12/28 05:04:48;;;;;;;;;;;;;;;1.60;100.00;96996.44;5057065;28;19953;-72
2022/12/28 05:07:14;;;;;;;;;;;;;;;1.61;100.00;96997.25;5074667;28;20005;-72
2022/12/28 05:09:40;;;;;;;;;;;;;;;1.62;100.00;96988.56;5074749;28;19967;-72
2022/12/28 05:12:05;;;;;;;;;;;;;;;1.65;100.00;96987.44;5074644;28;20464;-73
2022/12/28 05:14:31;;;;;;;;;;;;;;;1.62;100.00;96975.63;5074467;28;20048;-72
2022/12/28 05:16:57;;;;;;;;;;;;;;;1.62;100.00;96984.19;5074394;28;20051;-72
2022/12/28 05:19:23;;;;;;;;;;;;;;;1.60;100.00;96977.53;5074502;28;19956;-72
2022/12/28 05:21:49;;;;;;;;;;;;;;;1.58;100.00;96980.28;5073827;28;20005;-72
2022/12/28 05:24:15;;;;;;;;;;;;;;;1.57;100.00;96981.22;5074238;28;20016;-72
2022/12/28 05:26:41;;;;;;;;;;;;;;;1.56;100.00;96992.53;5074366;28;19962;-72
2022/12/28 05:29:06;;;;;;;;;;;;;;;1.56;100.00;96986.56;5073967;28;20048;-72
2022/12/28 05:31:32;;;;;;;;;;;;;;;1.54;100.00;96983.31;5074171;28;20019;-72
2022/12/28 05:33:58;;;;;;;;;;;;;;;1.55;100.00;96982.31;5074777;28;19996;-72
2022/12/28 05:36:25;;;;;;;;;;;;;;;1.56;100.00;96982.19;5074012;28;19985;-72
2022/12/28 05:38:52;;;;;;;;;;;;;;;1.56;100.00;96982.19;5074503;28;19953;-72
2022/12/28 05:41:22;;;;;;;;;;;;;;;1.59;100.00;96986.25;5074069;28;19950;-72
2022/12/28 05:43:49;;;;;;;;;;;;;;;1.60;100.00;96985.31;5073872;28;19960;-72
2022/12/28 05:46:18;;;;;;;;;;;;;;;1.60;100.00;96982.72;5074551;28;19978;-72
2022/12/28 05:48:44;;;;;;;;;;;;;;;1.61;100.00;96992.06;5073762;28;20425;-72
2022/12/28 05:51:14;;;;;;;;;;;;;;;1.62;100.00;96980.78;5073958;28;19958;-72
2022/12/28 05:53:40;;;;;;;;;;;;;;;1.63;100.00;96979.81;5074265;28;20392;-72
2022/12/28 05:56:10;;;;;;;;;;;;;;;1.65;100.00;96972.72;5073769;28;20324;-72
2022/12/28 05:58:36;;;;;;;;;;;;;;;1.67;100.00;96968.22;5073770;28;19957;-72
2022/12/28 06:01:10;;;;;;;;;;;;;;;1.69;100.00;96968.88;5073949;28;20002;-72
2022/12/28 06:03:36;;;;;;;;;;;;;;;1.70;100.00;96957.59;5073913;28;19951;-72
2022/12/28 06:06:22;;;;;;;;;;;;;;;1.72;100.00;96960.00;5073646;28;19961;-72
2022/12/28 06:08:48;;;;;;;;;;;;;;;1.74;100.00;96950.34;5073325;28;19967;-73
2022/12/28 06:11:18;;;;;;;;;;;;;;;1.75;100.00;96955.38;5073628;28;19966;-72
2022/12/28 06:13:44;;;;;;;;;;;;;;;1.77;100.00;96950.84;5073726;28;19956;-72
2022/12/28 06:16:13;;;;;;;;;;;;;;;1.80;100.00;96953.13;5073626;28;19964;-72
2022/12/28 06:18:39;;;;;;;;;;;;;;;1.82;100.00;96948.63;5073813;28;19966;-72
2022/12/28 06:21:07;;;;;;;;;;;;;;;1.82;100.00;96946.03;5073668;28;19964;-72
2022/12/28 06:23:33;;;;;;;;;;;;;;;1.83;100.00;96933.94;5073697;28;19953;-73
2022/12/28 06:26:00;;;;;;;;;;;;;;;1.86;100.00;96935.41;5063766;28;19964;-72
2022/12/28 06:28:26;;;;;;;;;;;;;;;1.86;100.00;96935.41;5073869;28;19970;-73
2022/12/28 06:30:59;;;;;;;;;;;;;;;1.85;100.00;96923.41;5073559;28;20013;-72
2022/12/28 06:33:25;;;;;;;;;;;;;;;1.83;100.00;96923.59;5073373;28;19960;-72
2022/12/28 06:35:51;;;;;;;;;;;;;;;1.82;100.00;96927.94;5055365;28;19960;-72
2022/12/28 06:38:17;;;;;;;;;;;;;;;1.84;100.00;96927.78;5072641;28;20011;-72
2022/12/28 06:40:43;;;;;;;;;;;;;;;1.83;100.00;96932.16;5073929;28;19978;-72
2022/12/28 06:43:09;;;;;;;;;;;;;;;1.86;100.00;96943.97;5073622;28;19956;-72
2022/12/28 06:45:34;;;;;;;;;;;;;;;1.84;100.00;96940.72;5073406;28;19954;-72
2022/12/28 06:48:00;;;;;;;;;;;;;;;1.85;100.00;96938.94;5073133;28;20479;-72
2022/12/28 06:50:26;;;;;;;;;;;;;;;1.85;100.00;96932.00;5073368;28;20462;-72
2022/12/28 06:52:52;;;;;;;;;;;;;;;1.87;100.00;96931.84;5073545;28;20303;-72
2022/12/28 06:55:18;;;;;;;;;;;;;;;1.88;100.00;96923.94;5073154;28;20000;-72
2022/12/28 06:57:44;;;;;;;;;;;;;;;1.85;100.00;96926.00;5073203;28;19959;-72
2022/12/28 07:00:10;;;;;;;;;;;;;;;1.85;100.00;96916.50;5073386;28;20068;-72
2022/12/28 07:02:36;;;;;;;;;;;;;;;1.86;100.00;96912.13;5073177;28;19955;-72
2022/12/28 07:05:02;;;;;;;;;;;;;;;1.85;100.00;96911.31;5072992;28;20415;-72
2022/12/28 07:07:28;;;;;;;;;;;;;;;1.86;100.00;96907.75;5073097;28;19965;-72
2022/12/28 07:09:54;;;;;;;;;;;;;;;1.88;100.00;96910.19;5075520;28;20024;-72
2022/12/28 07:12:19;;;;;;;;;;;;;;;1.89;100.00;96907.47;5077098;28;20340;-72
2022/12/28 07:14:45;;;;;;;;;;;;;;;1.88;100.00;96905.81;5076727;28;19950;-72
2022/12/28 07:17:11;;;;;;;;;;;;;;;1.87;100.00;96904.22;5058712;28;20039;-72
2022/12/28 07:19:37;;;;;;;;;;;;;;;1.86;100.00;96894.81;5058963;28;20318;-72
2022/12/28 07:22:03;;;;;;;;;;;;;;;1.87;100.00;96905.97;5076990;28;19960;-72
2022/12/28 07:24:29;;;;;;;;;;;;;;;1.88;100.00;96900.66;5076735;28;19948;-72
2022/12/28 07:26:54;;;;;;;;;;;;;;;1.89;100.00;96891.13;5076990;28;20412;-72
2022/12/28 07:29:20;;;;;;;;;;;;;;;1.89;100.00;96899.72;5076425;28;20307;-72
2022/12/28 07:31:46;;;;;;;;;;;;;;;1.91;100.00;96896.94;5076396;28;20340;-72
2022/12/28 07:34:14;;;;;;;;;;;;;;;1.92;100.00;96896.00;5076669;28;20403;-72
2022/12/28 07:36:41;;;;;;;;;;;;;;;1.93;100.00;96898.44;5076259;28;19985;-72
2022/12/28 07:39:07;;;;;;;;;;;;;;;1.96;100.00;96892.94;5076438;28;19957;-72
2022/12/28 07:41:34;;;;;;;;;;;;;;;2.01;100.00;96895.06;5076389;28;20445;-73
2022/12/28 07:44:00;;;;;;;;;;;;;;;2.01;100.00;96892.50;5076570;28;20031;-72
2022/12/28 07:46:31;;;;;;;;;;;;;;;2.06;100.00;96892.03;5076380;28;19951;-72
2022/12/28 07:48:57;;;;;;;;;;;;;;;2.11;100.00;96893.19;5076070;28;19964;-73
2022/12/28 07:51:25;;;;;;;;;;;;;;;2.15;100.00;96875.59;5058541;28;19958;-72
2022/12/28 07:53:52;;;;;;;;;;;;;;;2.19;100.00;96877.72;5076344;28;19944;-72
2022/12/28 07:56:19;;;;;;;;;;;;;;;2.21;100.00;96880.16;5075959;28;19950;-72
2022/12/28 07:58:52;;;;;;;;;;;;;;;2.23;100.00;96884.22;5075116;28;19966;-72
2022/12/28 08:01:19;;;;;;;;;;;;;;;2.25;100.00;96873.72;5075865;28;19954;-72
2022/12/28 08:03:45;;;;;;;;;;;;;;;2.24;100.00;96874.66;5076226;28;20319;-72
2022/12/28 08:06:12;;;;;;;;;;;;;;;2.25;100.00;96871.13;5075910;28;19948;-72
2022/12/28 08:08:39;;;;;;;;;;;;;;;2.26;100.00;96869.34;5057785;28;20427;-72
2022/12/28 08:11:07;;;;;;;;;;;;;;;2.24;100.00;96865.13;5076110;28;19947;-72
2022/12/28 08:13:34;;;;;;;;;;;;;;;2.26;100.00;96875.31;5075918;28;19959;-72
2022/12/28 08:16:00;;;;;;;;;;;;;;;2.27;100.00;96865.78;5075986;28;19980;-72
2022/12/28 08:18:26;;;;;;;;;;;;;;;2.29;100.00;96872.44;5057888;28;20413;-72
2022/12/28 08:20:52;;;;;;;;;;;;;;;2.31;100.00;96862.75;5075752;28;19945;-72
2022/12/28 08:23:18;;;;;;;;;;;;;;;2.33;100.00;96867.75;5075611;28;19967;-72
2022/12/28 08:25:44;;;;;;;;;;;;;;;2.36;100.00;96868.25;5075537;28;20365;-72
2022/12/28 08:28:09;;;;;;;;;;;;;;;2.39;100.00;96873.13;5075101;28;19952;-72
2022/12/28 08:30:35;;;;;;;;;;;;;;;2.40;100.00;96871.34;5075549;28;20020;-72
2022/12/28 08:33:01;;;;;;;;;;;;;;;2.40;100.00;96871.34;5076134;28;20010;-72
2022/12/28 08:35:27;;;;;;;;;;;;;;;2.41;100.00;96865.19;5075396;28;19957;-72
2022/12/28 08:37:54;;;;;;;;;;;;;;;2.42;100.00;96867.63;5075392;28;20460;-71
2022/12/28 08:40:21;;;;;;;;;;;;;;;2.42;100.00;96865.03;5075246;28;19955;-72
2022/12/28 08:42:47;;;;;;;;;;;;;;;2.44;100.00;96872.66;5075152;28;20318;-72
2022/12/28 08:45:12;;;;;;;;;;;;;;;2.49;100.00;96867.00;5075048;28;20008;-72
2022/12/28 08:47:38;;;;;;;;;;;;;;;2.51;100.00;96867.66;5075593;28;20473;-72
2022/12/28 08:50:04;;;;;;;;;;;;;;;2.55;100.00;96869.78;5075035;28;20035;-72
2022/12/28 08:52:30;;;;;;;;;;;;;;;2.61;100.00;96860.56;5075040;28;19954;-73
2022/12/28 08:54:56;;;;;;;;;;;;;;;2.64;100.00;96858.47;5074810;28;20005;-73
2022/12/28 08:57:22;;;;;;;;;;;;;;;2.70;100.00;96854.44;5075317;28;20003;-73
2022/12/28 08:59:48;;;;;;;;;;;;;;;2.74;100.00;96854.94;5075611;28;19951;-73
2022/12/28 09:02:14;;;;;;;;;;;;;;;2.76;100.00;96853.81;5075012;28;20381;-72
2022/12/28 09:04:40;;;;;;;;;;;;;;;2.79;100.00;96855.28;5057309;28;20464;-74
2022/12/28 09:07:06;;;;;;;;;;;;;;;2.81;100.00;96853.34;5074847;28;19953;-72
2022/12/28 09:09:33;;;;;;;;;;;;;;;2.84;100.00;96853.84;5074497;28;19970;-74
2022/12/28 09:11:59;;;;;;;;;;;;;;;2.88;100.00;96856.94;5075031;28;19952;-74
2022/12/28 09:14:25;;;;;;;;;;;;;;;2.94;100.00;96858.03;5074716;28;19950;-74
2022/12/28 09:16:51;;;;;;;;;;;;;;;2.98;100.00;96857.59;5056673;28;19965;-73
2022/12/28 09:19:17;;;;;;;;;;;;;;;3.01;100.00;96853.88;5074560;28;19957;-73
2022/12/28 09:21:44;;;;;;;;;;;;;;;3.07;100.00;96853.22;5074353;28;20447;-73
2022/12/28 09:24:11;;;;;;;;;;;;;;;3.12;100.00;96850.94;5074354;28;19967;-74
2022/12/28 09:26:37;;;;;;;;;;;;;;;3.16;100.00;96852.25;5074317;28;19943;-73
2022/12/28 09:29:04;;;;;;;;;;;;;;;3.19;100.00;96849.34;5074468;28;19973;-73
2022/12/28 09:31:31;;;;;;;;;;;;;;;3.23;100.00;96849.81;5073467;28;19963;-73
2022/12/28 09:34:00;;;;;;;;;;;;;;;3.27;100.00;96847.72;5074248;28;19953;-74
2022/12/28 09:36:33;;;;;;;;;;;;;;;3.31;100.00;96846.44;5073968;28;19984;-74
2022/12/28 09:39:00;;;;;;;;;;;;;;;3.38;100.00;96847.38;5073997;28;19954;-73
2022/12/28 09:41:38;;;;;;;;;;;;;;;3.47;100.00;96837.84;5056941;28;19965;-73
2022/12/28 09:44:17;;;;;;;;;;;;;;;3.57;100.00;96836.69;5074052;28;19959;-73
2022/12/28 09:46:49;;;;;;;;;;;;;;;3.67;100.00;96833.91;5074213;28;19954;-73
2022/12/28 09:49:16;;;;;;;;;;;;;;;3.81;100.00;96833.25;5073726;28;20340;-74
2022/12/28 09:52:02;;;;;;;;;;;;;;;3.92;100.00;96826.91;5074060;28;20424;-71
2022/12/28 09:54:28;;;;;;;;;;;;;;;4.02;100.00;96824.13;5065405;28;19949;-74
2022/12/28 09:56:54;;;;;;;;;;;;;;;4.16;100.00;96826.03;5073961;28;19963;-73
2022/12/28 09:59:21;;;;;;;;;;;;;;;4.33;100.00;96826.75;5073898;28;20428;-74
2022/12/28 10:01:51;;;;;;;;;;;;;;;4.49;100.00;96810.28;5073923;28;19967;-74
2022/12/28 10:04:17;;;;;;;;;;;;;;;4.61;100.00;96818.50;5074064;28;20433;-74
2022/12/28 10:06:43;;;;;;;;;;;;;;;4.73;100.00;96818.94;5073933;28;19961;-74
2022/12/28 10:09:15;;;;;;;;;;;;;;;4.94;100.00;96820.94;5073894;28;19971;-73
2022/12/28 10:11:42;;;;;;;;;;;;;;;5.12;99.94;96797.22;5073871;28;19952;-74
2022/12/28 10:14:18;;;;;;;;;;;;;;;5.25;98.74;96798.25;5073685;28;19960;-74
2022/12/28 10:16:44;;;;;;;;;;;;;;;5.37;98.83;96787.44;5073496;28;19953;-74
2022/12/28 10:19:14;;;;;;;;;;;;;;;5.49;97.75;96784.22;5072967;28;19949;-74
2022/12/28 10:21:41;;;;;;;;;;;;;;;5.57;95.22;96762.53;5073740;28;20014;-74
2022/12/28 10:24:10;;;;;;;;;;;;;;;5.69;95.12;96768.09;5074044;28;19975;-74
2022/12/28 10:26:37;;;;;;;;;;;;;;;5.82;95.55;96762.28;5073406;28;19953;-74
2022/12/28 10:29:02;;;;;;;;;;;;;;;5.90;94.08;96754.38;5073790;28;20317;-74
2022/12/28 10:31:35;;;;;;;;;;;;;;;5.97;93.83;96744.06;5073338;28;19993;-74
2022/12/28 10:34:12;;;;;;;;;;;;;;;6.03;93.53;96751.16;5073610;28;19951;-74
2022/12/28 10:36:38;;;;;;;;;;;;;;;6.16;93.81;96747.91;5073692;28;19978;-74
2022/12/28 10:39:04;;;;;;;;;;;;;;;6.27;95.66;96755.25;5055594;28;19965;-74
2022/12/28 10:41:35;;;;;;;;;;;;;;;6.31;93.98;96748.69;5072795;28;20335;-74
2022/12/28 10:44:11;;;;;;;;;;;;;;;6.32;92.93;96739.06;5074756;28;19962;-74
2022/12/28 10:46:37;;;;;;;;;;;;;;;6.31;94.10;96740.88;5067314;28;19956;-73
2022/12/28 10:49:03;;;;;;;;;;;;;;;6.26;92.55;96728.41;5077290;28;19948;-74
2022/12/28 10:51:29;;;;;;;;;;;;;;;6.28;92.71;96736.84;5077463;28;19954;-74
2022/12/28 10:53:56;;;;;;;;;;;;;;;6.27;92.66;96731.81;5077224;28;20396;-74
2022/12/28 10:56:22;;;;;;;;;;;;;;;6.22;92.74;96721.94;5077152;28;20284;-73
2022/12/28 10:58:49;;;;;;;;;;;;;;;6.14;92.95;96727.25;5077325;28;19976;-73
2022/12/28 11:01:25;;;;;;;;;;;;;;;6.04;93.30;96724.13;5077322;28;20435;-73
2022/12/28 11:03:54;;;;;;;;;;;;;;;5.93;93.55;96727.97;5077022;28;19951;-72
2022/12/28 11:06:21;;;;;;;;;;;;;;;5.84;95.23;96735.09;5077169;28;20443;-73
2022/12/28 11:08:59;;;;;;;;;;;;;;;5.82;95.74;96734.44;5076491;28;19965;-73
2022/12/28 11:11:25;;;;;;;;;;;;;;;5.86;97.34;96738.31;5076774;28;19959;-73
2022/12/28 11:13:54;;;;;;;;;;;;;;;5.93;97.46;96732.38;5077136;28;19951;-73
2022/12/28 11:16:20;;;;;;;;;;;;;;;6.01;95.87;96725.31;5076386;28;20320;-75
2022/12/28 11:18:46;;;;;;;;;;;;;;;6.07;97.49;96732.38;5076944;28;19952;-73
2022/12/28 11:21:17;;;;;;;;;;;;;;;6.16;94.59;96698.44;5077022;28;19960;-73
2022/12/28 11:23:43;;;;;;;;;;;;;;;6.27;94.35;96701.34;5066061;28;19953;-73
2022/12/28 11:26:10;;;;;;;;;;;;;;;6.38;94.86;96696.66;5076647;28;19958;-73
2022/12/28 11:28:39;;;;;;;;;;;;;;;6.48;96.11;96707.59;5058963;28;19967;-73
2022/12/28 11:31:06;;;;;;;;;;;;;;;6.56;92.88;96680.59;5076564;28;19973;-73
2022/12/28 11:33:37;;;;;;;;;;;;;;;6.65;93.76;96680.28;5075710;28;19957;-73
2022/12/28 11:36:04;;;;;;;;;;;;;;;6.74;92.95;96675.78;5076502;28;19957;-73
2022/12/28 11:38:40;;;;;;;;;;;;;;;6.78;91.60;96656.13;5076028;28;19965;-73
2022/12/28 11:41:32;;;;;;;;;;;;;;;6.74;89.62;96639.28;5057379;28;19958;-73
2022/12/28 11:44:03;;;;;;;;;;;;;;;6.69;90.98;96647.63;5071997;28;19953;-73
2022/12/28 11:46:29;;;;;;;;;;;;;;;6.65;92.78;96659.44;5075452;28;20309;-73
2022/12/28 11:48:57;;;;;;;;;;;;;;;6.65;92.18;96653.41;5057186;28;20005;-73
2022/12/28 11:51:33;;;;;;;;;;;;;;;6.58;90.98;96634.31;5075081;28;19969;-74
2022/12/28 11:54:03;;;;;;;;;;;;;;;6.53;92.91;96652.31;5062364;28;19960;-73
2022/12/28 11:56:35;;;;;;;;;;;;;;;6.47;93.55;96651.28;5074586;28;19954;-73
2022/12/28 11:59:03;;;;;;;;;;;;;;;6.44;95.35;96662.84;5075096;28;19969;-73
2022/12/28 12:01:29;;;;;;;;;;;;;;;6.42;94.70;96658.81;5075495;28;19962;-73
2022/12/28 12:03:57;;;;;;;;;;;;;;;6.33;92.84;96636.50;5074832;28;19966;-73
2022/12/28 12:06:42;;;;;;;;;;;;;;;6.24;94.84;96651.44;5075076;28;19958;-73
2022/12/28 12:09:20;;;;;;;;;;;;;;;6.16;95.40;96654.97;5074805;28;19953;-73
2022/12/28 12:11:55;;;;;;;;;;;;;;;6.12;96.40;96647.72;5074788;28;19948;-73
2022/12/28 12:14:27;;;;;;;;;;;;;;;6.07;97.10;96656.09;5075003;28;19952;-73
2022/12/28 12:17:01;;;;;;;;;;;;;;;6.04;95.73;96643.41;5074551;28;19948;-73
2022/12/28 12:19:30;;;;;;;;;;;;;;;6.00;97.59;96645.56;5074621;28;19954;-73
2022/12/28 12:22:00;;;;;;;;;;;;;;;5.99;97.81;96640.56;5074347;28;20421;-73
2022/12/28 12:24:33;;;;;;;;;;;;;;;5.98;96.84;96629.34;5074188;28;19954;-73
2022/12/28 12:27:17;;;;;;;;;;;;;;;5.98;97.59;96628.53;5074620;28;19953;-72
2022/12/28 12:29:47;;;;;;;;;;;;;;;5.98;97.92;96615.53;5074102;28;20425;-73
2022/12/28 12:32:20;;;;;;;;;;;;;;;6.16;99.05;96604.69;5074254;28;19957;-73
2022/12/28 12:34:55;;;;;;;;;;;;;;;6.27;97.51;96597.19;5074438;28;20330;-73
2022/12/28 12:37:24;;;;;;;;;;;;;;;6.39;96.74;96588.88;5011464;28;1796764;-72
2022/12/28 12:39:57;;;;;;;;;;;;;;;6.49;95.75;96577.13;5075599;28;20398;-73
2022/12/28 12:42:33;;;;;;;;;;;;;;;6.57;95.22;96573.56;5075539;28;20298;-73
2022/12/28 12:45:04;;;;;;;;;;;;;;;6.63;93.76;96557.19;5075322;28;19977;-73
2022/12/28 12:47:39;;;;;;;;;;;;;;;6.68;93.66;96557.44;5075424;28;19943;-73
2022/12/28 12:50:16;;;;;;;;;;;;;;;6.73;93.81;96559.47;5074703;28;19971;-73
2022/12/28 12:52:52;;;;;;;;;;;;;;;6.76;92.87;96542.63;5075353;28;19954;-73
2022/12/28 12:55:22;;;;;;;;;;;;;;;6.78;92.02;96545.84;5066322;28;20294;-73
2022/12/28 12:57:52;;;;;;;;;;;;;;;6.78;91.39;96527.59;5075153;28;19960;-75
2022/12/28 13:00:20;;;;;;;;;;;;;;;6.78;91.05;96530.22;5075122;28;19961;-73
2022/12/28 13:02:52;;;;;;;;;;;;;;;6.79;92.81;96550.09;5074851;28;20404;-73
2022/12/28 13:05:25;;;;;;;;;;;;;;;6.76;91.27;96537.41;5074635;28;19953;-73
2022/12/28 13:07:54;;;;;;;;;;;;;;;6.75;91.84;96541.03;5074292;28;19947;-73
2022/12/28 13:10:27;;;;;;;;;;;;;;;6.73;91.58;96538.63;5074426;28;20336;-73
2022/12/28 13:12:56;;;;;;;;;;;;;;;6.65;89.11;96510.88;5073863;28;19971;-73
2022/12/28 13:15:21;;;;;;;;;;;;;;;6.64;91.16;96532.75;5056648;28;19947;-73
2022/12/28 13:17:57;;;;;;;;;;;;;;;6.63;91.89;96532.94;5074324;28;19965;-73